Time;durP1;ratioP1;P1;durP2;ratioP2;P2;SDS_P1;SDS_P2;PMS_P1;PMS_P2;Temp;Humidity;BMP_temperature;BMP_pressure;BME280_temperature;BME280_humidity;BME280_pressure;Samples;Min_cycle;Max_cycle;Signal;HPM_P1;HPM_P2
2022/06/10 00:01:09;;;;;;;4.10;2.90;;;13.60;99.90;;;;;;5038258;28;20543;-70
2022/06/10 00:03:35;;;;;;;4.63;3.33;;;13.50;99.90;;;;;;5049381;28;20527;-69
2022/06/10 00:06:04;;;;;;;4.77;3.20;;;13.50;99.90;;;;;;5049740;28;20170;-69
2022/06/10 00:08:34;;;;;;;3.30;3.00;;;13.50;99.90;;;;;;5045401;28;20450;-70
2022/06/10 00:11:01;;;;;;;3.70;3.33;;;13.40;99.90;;;;;;5046816;28;20826;-70
2022/06/10 00:13:29;;;;;;;3.63;3.33;;;13.40;99.90;;;;;;5046057;28;20809;-70
2022/06/10 00:15:55;;;;;;;4.83;2.90;;;13.40;99.90;;;;;;5046235;28;20429;-70
2022/06/10 00:18:23;;;;;;;7.30;3.47;;;13.30;99.90;;;;;;5039570;28;20514;-69
2022/06/10 00:20:49;;;;;;;4.87;3.13;;;13.30;99.90;;;;;;5045264;28;20456;-70
2022/06/10 00:23:14;;;;;;;4.40;2.80;;;13.30;99.90;;;;;;5033964;28;20436;-69
2022/06/10 00:25:41;;;;;;;5.80;3.57;;;13.30;99.90;;;;;;5036699;28;20240;-69
2022/06/10 00:28:07;;;;;;;3.80;3.20;;;13.30;99.90;;;;;;5036818;28;20590;-70
2022/06/10 00:30:33;;;;;;;3.20;2.93;;;13.50;99.90;;;;;;5041501;28;20514;-69
2022/06/10 00:32:59;;;;;;;3.87;3.57;;;13.50;99.90;;;;;;5038505;28;20437;-69
2022/06/10 00:35:27;;;;;;;3.30;3.10;;;13.60;99.90;;;;;;5039088;28;20439;-69
2022/06/10 00:37:53;;;;;;;6.73;3.17;;;13.70;99.90;;;;;;5040310;28;20551;-69
2022/06/10 00:40:24;;;;;;;3.50;3.20;;;13.70;99.90;;;;;;5037065;28;20539;-69
2022/06/10 00:42:50;;;;;;;5.43;3.33;;;13.50;99.90;;;;;;5037078;28;20198;-70
2022/06/10 00:45:53;;;;;;;3.17;2.87;;;13.40;99.90;;;;;;5035370;28;20472;-69
2022/06/10 00:48:36;;;;;;;4.73;3.07;;;13.40;99.90;;;;;;5033432;28;20784;-69
2022/06/10 00:51:19;;;;;;;4.33;3.33;;;13.30;99.90;;;;;;5039498;28;20455;-69
2022/06/10 00:53:46;;;;;;;5.33;3.40;;;13.30;99.90;;;;;;5034467;28;20441;-69
2022/06/10 00:56:18;;;;;;;3.80;3.50;;;13.30;99.90;;;;;;5031386;28;20444;-69
2022/06/10 00:59:02;;;;;;;4.17;3.33;;;13.30;99.90;;;;;;5033962;28;20833;-69
2022/06/10 01:01:31;;;;;;;4.90;3.00;;;13.30;99.90;;;;;;5039591;28;20456;-69
2022/06/10 01:03:57;;;;;;;4.50;4.20;;;13.30;99.90;;;;;;5035164;28;20490;-70
2022/06/10 01:06:23;;;;;;;3.87;3.20;;;13.20;99.90;;;;;;5042932;28;20432;-69
2022/06/10 01:08:51;;;;;;;4.37;3.60;;;13.20;99.90;;;;;;5049558;28;20939;-69
2022/06/10 01:11:27;;;;;;;5.80;3.10;;;13.20;99.90;;;;;;5035687;28;20539;-69
2022/06/10 01:14:27;;;;;;;4.93;3.10;;;13.20;99.90;;;;;;5040091;28;20798;-70
2022/06/10 01:17:12;;;;;;;4.40;4.00;;;13.10;99.90;;;;;;5036395;28;20439;-69
2022/06/10 01:20:01;;;;;;;6.23;3.73;;;13.10;99.90;;;;;;5035523;28;20809;-69
2022/06/10 01:23:04;;;;;;;4.60;3.50;;;13.00;99.90;;;;;;5039208;28;20506;-69
2022/06/10 01:25:48;;;;;;;6.97;4.10;;;12.90;99.90;;;;;;5035739;28;20432;-69
2022/06/10 01:28:51;;;;;;;5.40;5.00;;;12.90;99.90;;;;;;5045851;28;20990;-69
2022/06/10 01:31:38;;;;;;;7.23;3.40;;;12.80;99.90;;;;;;5036345;28;20487;-70
2022/06/10 01:34:26;;;;;;;6.10;4.07;;;12.70;99.90;;;;;;5037671;28;20427;-70
2022/06/10 01:37:06;;;;;;;3.17;2.87;;;12.70;99.90;;;;;;5038820;28;20453;-69
2022/06/10 01:39:50;;;;;;;3.70;3.40;;;12.80;99.90;;;;;;5038159;28;20529;-70
2022/06/10 01:42:23;;;;;;;3.93;3.43;;;12.70;99.90;;;;;;5034329;28;20452;-69
2022/06/10 01:44:55;;;;;;;4.33;3.70;;;12.70;99.90;;;;;;5046834;28;20468;-69
2022/06/10 01:47:26;;;;;;;4.57;3.30;;;12.70;99.90;;;;;;5031372;28;20468;-69
2022/06/10 01:49:56;;;;;;;4.70;3.37;;;12.70;99.90;;;;;;5044303;28;20802;-70
2022/06/10 01:52:25;;;;;;;4.73;3.90;;;12.60;99.90;;;;;;5035061;28;20460;-69
2022/06/10 01:55:03;;;;;;;9.90;4.20;;;12.60;99.90;;;;;;5040284;28;20433;-69
2022/06/10 01:57:34;;;;;;;6.13;3.90;;;12.60;99.90;;;;;;5033343;28;20551;-70
2022/06/10 02:00:23;;;;;;;3.73;3.43;;;12.60;99.90;;;;;;5036245;28;20447;-69
2022/06/10 02:03:13;;;;;;;5.57;3.40;;;12.60;99.90;;;;;;5035795;28;20437;-70
2022/06/10 02:05:48;;;;;;;7.80;3.60;;;12.50;99.90;;;;;;5041315;28;20443;-69
2022/06/10 02:08:27;;;;;;;4.70;3.27;;;12.40;99.90;;;;;;5036638;28;20505;-69
2022/06/10 02:11:08;;;;;;;3.30;3.00;;;12.50;99.90;;;;;;5036153;28;20459;-69
2022/06/10 02:14:02;;;;;;;6.07;3.30;;;12.50;99.90;;;;;;5047920;28;20482;-69
2022/06/10 02:16:31;;;;;;;4.90;3.93;;;12.40;99.90;;;;;;5043696;28;20444;-70
2022/06/10 02:19:08;;;;;;;6.10;3.27;;;12.40;99.90;;;;;;5040456;28;20466;-69
2022/06/10 02:21:42;;;;;;;6.07;3.70;;;12.40;99.90;;;;;;5045188;28;20463;-70
2022/06/10 02:24:17;;;;;;;4.50;4.10;;;12.40;99.90;;;;;;5035181;28;20832;-69
2022/06/10 02:26:44;;;;;;;5.27;3.60;;;12.40;99.90;;;;;;5038618;28;20458;-69
2022/06/10 02:29:20;;;;;;;7.67;4.17;;;12.30;99.90;;;;;;5049721;28;20432;-70
2022/06/10 02:31:53;;;;;;;9.60;4.00;;;12.30;99.90;;;;;;5041851;28;20814;-69
2022/06/10 02:34:19;;;;;;;10.37;4.20;;;12.40;99.90;;;;;;5042937;28;20520;-69
2022/06/10 02:36:51;;;;;;;4.93;3.90;;;12.40;99.90;;;;;;5044561;28;20542;-69
2022/06/10 02:39:24;;;;;;;5.40;4.00;;;12.40;99.90;;;;;;5049805;28;20316;-69
2022/06/10 02:41:51;;;;;;;5.07;4.03;;;12.30;99.90;;;;;;5035036;28;20448;-69
2022/06/10 02:44:36;;;;;;;4.70;3.77;;;12.30;99.90;;;;;;5043215;28;20436;-69
2022/06/10 02:47:14;;;;;;;5.73;4.50;;;12.20;99.90;;;;;;5040156;28;20456;-69
2022/06/10 02:49:40;;;;;;;7.23;3.93;;;12.20;99.90;;;;;;5049943;28;20440;-69
2022/06/10 02:52:08;;;;;;;4.37;4.00;;;12.20;99.90;;;;;;5040783;28;20825;-69
2022/06/10 02:54:37;;;;;;;5.00;3.93;;;12.20;99.90;;;;;;5039569;28;20447;-69
2022/06/10 02:57:14;;;;;;;4.83;3.80;;;12.20;99.90;;;;;;5037710;28;20519;-69
2022/06/10 03:02:56;;;;;;;3.70;3.40;;;12.10;99.90;;;;;;5040871;28;20480;-70
2022/06/10 03:05:21;;;;;;;4.47;4.07;;;12.10;99.90;;;;;;5036865;28;20455;-69
2022/06/10 03:08:13;;;;;;;8.10;4.27;;;12.10;99.90;;;;;;5039329;28;20428;-69
2022/06/10 03:10:48;;;;;;;4.80;3.77;;;12.10;99.90;;;;;;5039184;28;20239;-69
2022/06/10 03:13:28;;;;;;;6.33;4.67;;;12.10;99.90;;;;;;5043855;28;20442;-69
2022/06/10 03:16:00;;;;;;;8.03;4.47;;;12.10;99.90;;;;;;5045186;28;20532;-69
2022/06/10 03:19:10;;;;;;;5.07;4.37;;;12.10;99.90;;;;;;5039527;28;20472;-70
2022/06/10 03:21:51;;;;;;;5.33;4.43;;;12.10;99.90;;;;;;5051785;28;20516;-69
2022/06/10 03:24:52;;;;;;;4.33;3.50;;;12.00;99.90;;;;;;5041519;28;20455;-69
2022/06/10 03:27:52;;;;;;;4.30;3.63;;;12.00;99.90;;;;;;5043120;28;20614;-69
2022/06/10 03:30:26;;;;;;;5.20;4.20;;;11.90;99.90;;;;;;5044034;28;20436;-69
2022/06/10 03:33:06;;;;;;;4.90;4.50;;;11.90;99.90;;;;;;5040326;28;20435;-69
2022/06/10 03:35:34;;;;;;;4.60;3.67;;;11.90;99.90;;;;;;5046767;28;20424;-69
2022/06/10 03:38:03;;;;;;;4.17;3.10;;;11.90;99.90;;;;;;5044674;28;20819;-69
2022/06/10 03:40:30;;;;;;;6.53;3.80;;;11.90;99.90;;;;;;5042865;28;20471;-69
2022/06/10 03:42:59;;;;;;;3.73;3.50;;;11.90;99.90;;;;;;5041027;28;20439;-69
2022/06/10 03:45:46;;;;;;;5.10;4.00;;;11.90;99.90;;;;;;5046515;28;20436;-69
2022/06/10 03:48:21;;;;;;;3.90;3.57;;;11.90;99.90;;;;;;5037769;28;20485;-69
2022/06/10 03:50:47;;;;;;;5.27;3.87;;;11.90;99.90;;;;;;5037291;28;20468;-71
2022/06/10 03:53:15;;;;;;;7.70;3.67;;;11.90;99.90;;;;;;5057501;28;20449;-68
2022/06/10 03:55:41;;;;;;;3.70;3.40;;;12.00;99.90;;;;;;5060037;28;20440;-70
2022/06/10 03:58:09;;;;;;;3.83;3.53;;;12.10;99.90;;;;;;5055667;28;20455;-70
2022/06/10 04:00:35;;;;;;;3.93;3.53;;;12.20;99.90;;;;;;5050368;28;20472;-70
2022/06/10 04:03:00;;;;;;;3.70;3.30;;;12.20;99.90;;;;;;5054149;28;20456;-71
2022/06/10 04:05:26;;;;;;;8.00;3.73;;;12.30;99.90;;;;;;5062924;28;20440;-71
2022/06/10 04:07:51;;;;;;;5.13;3.30;;;12.40;99.90;;;;;;5059276;28;20201;-70
2022/06/10 04:10:24;;;;;;;4.03;3.70;;;12.50;99.90;;;;;;5054522;28;20189;-70
2022/06/10 04:12:50;;;;;;;4.03;3.57;;;12.60;99.90;;;;;;5060323;28;20190;-70
2022/06/10 04:15:16;;;;;;;3.90;3.60;;;12.70;99.90;;;;;;5060373;28;20471;-70
2022/06/10 04:17:44;;;;;;;4.57;4.17;;;12.70;99.90;;;;;;5059464;28;20493;-71
2022/06/10 04:20:17;;;;;;;4.50;4.00;;;12.80;99.90;;;;;;5062286;28;20421;-69
2022/06/10 04:22:46;;;;;;;5.97;3.87;;;12.90;99.90;;;;;;5065810;28;20457;-67
2022/06/10 04:25:12;;;;;;;4.40;4.00;;;13.00;99.90;;;;;;5067199;28;20424;-68
2022/06/10 04:27:38;;;;;;;4.20;3.80;;;13.10;99.90;;;;;;5062103;28;20867;-71
2022/06/10 04:30:07;;;;;;;3.93;3.57;;;13.30;99.90;;;;;;5056177;28;20438;-70
2022/06/10 04:32:32;;;;;;;4.83;3.40;;;13.40;99.90;;;;;;5061180;28;20555;-71
2022/06/10 04:34:58;;;;;;;3.37;2.93;;;13.40;99.90;;;;;;5052652;28;20455;-71
2022/06/10 04:37:25;;;;;;;5.37;3.67;;;13.50;99.90;;;;;;5052146;28;20233;-71
2022/06/10 04:39:50;;;;;;;3.97;3.67;;;13.70;99.90;;;;;;5056644;28;20178;-71
2022/06/10 04:42:16;;;;;;;6.87;3.93;;;13.80;99.90;;;;;;5052026;28;20466;-69
2022/06/10 04:44:41;;;;;;;4.10;3.80;;;13.90;99.90;;;;;;5049321;28;20214;-71
2022/06/10 04:47:07;;;;;;;4.50;4.10;;;13.90;99.90;;;;;;5048607;28;20205;-71
2022/06/10 04:49:35;;;;;;;3.70;3.37;;;14.00;99.90;;;;;;5045810;28;20212;-69
2022/06/10 04:52:01;;;;;;;4.70;3.67;;;14.20;99.90;;;;;;5042025;28;20541;-71
2022/06/10 04:54:26;;;;;;;4.50;3.50;;;14.40;99.90;;;;;;5049528;28;20437;-69
2022/06/10 04:56:52;;;;;;;5.00;4.00;;;14.60;99.90;;;;;;5049510;28;20189;-71
2022/06/10 04:59:18;;;;;;;4.30;3.90;;;14.40;99.90;;;;;;5047136;28;20216;-70
2022/06/10 05:01:43;;;;;;;5.67;3.40;;;14.50;99.90;;;;;;5045059;28;20210;-71
2022/06/10 05:04:09;;;;;;;4.23;3.30;;;14.60;99.90;;;;;;5053834;28;20384;-71
2022/06/10 05:06:34;;;;;;;5.17;3.77;;;14.80;99.90;;;;;;5043644;28;20267;-71
2022/06/10 05:09:00;;;;;;;4.93;3.97;;;14.70;99.90;;;;;;5053229;28;20316;-72
2022/06/10 05:11:26;;;;;;;6.43;3.87;;;14.70;99.90;;;;;;5049976;28;20213;-70
2022/06/10 05:13:51;;;;;;;5.33;3.80;;;14.70;99.90;;;;;;5064779;28;20644;-71
2022/06/10 05:16:17;;;;;;;3.73;3.43;;;14.80;99.90;;;;;;5051587;28;20252;-70
2022/06/10 05:18:42;;;;;;;5.23;3.67;;;15.00;99.90;;;;;;5057926;28;20564;-71
2022/06/10 05:21:10;;;;;;;5.63;3.27;;;15.30;99.90;;;;;;5062248;28;20256;-71
2022/06/10 05:23:36;;;;;;;6.57;3.77;;;15.50;99.90;;;;;;5053245;28;20276;-71
2022/06/10 05:26:02;;;;;;;4.67;3.50;;;15.70;99.90;;;;;;5061937;28;20520;-71
2022/06/10 05:28:27;;;;;;;4.80;3.50;;;15.90;99.90;;;;;;5075402;28;20419;-71
2022/06/10 05:30:53;;;;;;;4.17;3.77;;;16.00;99.90;;;;;;5061374;28;20486;-71
2022/06/10 05:33:19;;;;;;;4.23;3.67;;;16.10;99.90;;;;;;5059058;28;20194;-68
2022/06/10 05:35:46;;;;;;;8.53;3.53;;;16.30;99.90;;;;;;5022903;28;20339;-68
2022/06/10 05:38:12;;;;;;;4.00;3.67;;;16.50;99.90;;;;;;5036690;28;20459;-66
2022/06/10 05:40:38;;;;;;;4.67;4.13;;;16.60;99.90;;;;;;5052048;28;20594;-67
2022/06/10 05:43:04;;;;;;;4.03;2.87;;;16.70;99.90;;;;;;5040200;28;20537;-68
2022/06/10 05:45:30;;;;;;;4.90;3.87;;;16.80;99.90;;;;;;5041108;28;20750;-68
2022/06/10 05:48:00;;;;;;;4.13;3.63;;;16.90;99.90;;;;;;5047175;28;20449;-67
2022/06/10 05:50:41;;;;;;;3.97;3.67;;;17.10;99.90;;;;;;5047973;28;20466;-67
2022/06/10 05:53:10;;;;;;;9.23;4.13;;;17.20;99.90;;;;;;5052459;28;20885;-68
2022/06/10 05:55:36;;;;;;;3.93;3.13;;;17.30;99.90;;;;;;5049664;28;21005;-68
2022/06/10 05:58:02;;;;;;;4.80;4.00;;;17.40;99.90;;;;;;5046474;28;20598;-67
2022/06/10 06:00:30;;;;;;;5.00;3.60;;;17.50;99.90;;;;;;5049224;28;20639;-67
2022/06/10 06:02:55;;;;;;;5.33;3.87;;;17.70;99.90;;;;;;5044802;28;20498;-67
2022/06/10 06:05:22;;;;;;;5.20;4.00;;;17.90;99.90;;;;;;5045409;28;20431;-68
2022/06/10 06:07:49;;;;;;;3.90;3.47;;;18.10;99.90;;;;;;5049229;28;20192;-67
2022/06/10 06:10:18;;;;;;;4.67;3.80;;;18.30;99.90;;;;;;5051948;28;20945;-68
2022/06/10 06:12:44;;;;;;;6.33;3.40;;;18.50;99.90;;;;;;5032494;28;20447;-68
2022/06/10 06:15:10;;;;;;;7.97;3.53;;;18.60;99.90;;;;;;5033028;28;20782;-68
2022/06/10 06:17:36;;;;;;;4.80;3.40;;;18.70;99.90;;;;;;5039021;28;20224;-67
2022/06/10 06:20:02;;;;;;;4.03;3.43;;;18.80;99.90;;;;;;5051489;28;20797;-67
2022/06/10 06:22:28;;;;;;;4.37;3.70;;;18.80;99.90;;;;;;5039617;28;20256;-68
2022/06/10 06:24:54;;;;;;;6.93;3.30;;;18.70;99.90;;;;;;5033380;28;20437;-67
2022/06/10 06:27:19;;;;;;;3.50;2.83;;;18.70;99.90;;;;;;5041129;28;20170;-68
2022/06/10 06:29:45;;;;;;;3.90;3.00;;;19.10;99.90;;;;;;5038171;28;20439;-67
2022/06/10 06:32:12;;;;;;;5.23;3.70;;;19.40;99.90;;;;;;5038450;28;20209;-68
2022/06/10 06:34:38;;;;;;;6.50;3.83;;;19.50;99.90;;;;;;5043060;28;20432;-68
2022/06/10 06:37:04;;;;;;;4.80;3.80;;;19.60;99.90;;;;;;5047123;28;20554;-68
2022/06/10 06:39:30;;;;;;;3.40;3.10;;;19.70;99.90;;;;;;5039297;28;20472;-68
2022/06/10 06:41:56;;;;;;;5.40;2.97;;;19.90;99.90;;;;;;5051011;28;20983;-68
2022/06/10 06:44:21;;;;;;;3.17;2.83;;;19.90;99.90;;;;;;5040844;28;20178;-67
2022/06/10 06:46:47;;;;;;;4.00;3.60;;;20.00;99.90;;;;;;5039595;28;20186;-66
2022/06/10 06:49:19;;;;;;;5.77;3.60;;;20.20;99.90;;;;;;5048639;28;20228;-68
2022/06/10 06:51:46;;;;;;;6.00;4.93;;;19.90;99.90;;;;;;5045096;28;20398;-68
2022/06/10 06:54:11;;;;;;;5.43;4.83;;;20.00;99.90;;;;;;5037633;28;20452;-68
2022/06/10 06:56:37;;;;;;;5.07;3.53;;;20.00;99.90;;;;;;5051163;28;20767;-68
2022/06/10 06:59:05;;;;;;;4.40;3.40;;;20.20;99.90;;;;;;5045445;28;20707;-68
2022/06/10 07:01:30;;;;;;;3.30;2.83;;;20.40;99.90;;;;;;5051417;28;20464;-68
2022/06/10 07:03:56;;;;;;;4.00;2.70;;;20.40;99.90;;;;;;5045121;28;20805;-68
2022/06/10 07:06:22;;;;;;;3.57;3.27;;;20.60;99.90;;;;;;5052019;28;20193;-65
2022/06/10 07:08:47;;;;;;;7.60;3.77;;;20.90;99.90;;;;;;5040700;28;20189;-65
2022/06/10 07:11:13;;;;;;;5.77;3.17;;;21.10;99.90;;;;;;5052205;28;20691;-67
2022/06/10 07:13:38;;;;;;;4.77;3.20;;;21.00;99.90;;;;;;5050003;28;20231;-67
2022/06/10 07:16:06;;;;;;;7.87;3.50;;;21.00;99.90;;;;;;5047894;28;20194;-68
2022/06/10 07:18:32;;;;;;;5.47;3.00;;;21.10;99.90;;;;;;5052085;28;20615;-68
2022/06/10 07:20:58;;;;;;;3.83;2.73;;;21.10;99.90;;;;;;5041700;28;20479;-66
2022/06/10 07:23:24;;;;;;;4.53;3.60;;;21.20;99.90;;;;;;5034750;28;20433;-67
2022/06/10 07:25:50;;;;;;;5.60;3.30;;;21.30;99.90;;;;;;5034568;28;20275;-67
2022/06/10 07:28:16;;;;;;;4.67;3.17;;;21.70;99.90;;;;;;5043414;28;20433;-67
2022/06/10 07:30:43;;;;;;;5.97;3.40;;;22.10;99.90;;;;;;5041479;28;20206;-67
2022/06/10 07:33:09;;;;;;;6.40;3.07;;;22.40;99.90;;;;;;5041728;28;20184;-67
2022/06/10 07:35:35;;;;;;;5.87;4.10;;;22.20;99.90;;;;;;5039883;28;20467;-68
2022/06/10 07:38:01;;;;;;;7.30;3.00;;;22.10;99.90;;;;;;5046705;28;20507;-68
2022/06/10 07:43:16;;;;;;;7.83;3.87;;;22.50;99.90;;;;;;5038780;28;20822;-68
2022/06/10 07:45:42;;;;;;;2.83;2.60;;;22.90;99.90;;;;;;5047209;28;20416;-68
2022/06/10 07:48:10;;;;;;;7.57;3.33;;;23.30;98.90;;;;;;5046233;28;20444;-68
2022/06/10 07:50:36;;;;;;;5.30;3.73;;;23.60;98.70;;;;;;5041181;28;20893;-68
2022/06/10 07:53:02;;;;;;;3.67;2.87;;;23.40;98.50;;;;;;5036956;28;20440;-68
2022/06/10 07:55:27;;;;;;;6.53;3.20;;;23.30;98.40;;;;;;5038514;28;20187;-68
2022/06/10 07:57:54;;;;;;;3.50;3.20;;;23.40;98.30;;;;;;5038421;28;20213;-68
2022/06/10 08:00:20;;;;;;;6.37;3.10;;;23.40;97.60;;;;;;5037081;28;20166;-68
2022/06/10 08:02:46;;;;;;;2.73;2.40;;;23.40;97.50;;;;;;5032917;28;20807;-68
2022/06/10 08:05:15;;;;;;;3.83;2.60;;;23.60;97.60;;;;;;5039897;28;20440;-68
2022/06/10 08:07:41;;;;;;;2.80;2.40;;;23.80;96.40;;;;;;5032424;28;20198;-68
2022/06/10 08:10:14;;;;;;;4.03;2.33;;;23.90;96.10;;;;;;5040406;28;20446;-68
2022/06/10 08:12:40;;;;;;;3.73;2.70;;;24.30;95.50;;;;;;5036967;28;20888;-68
2022/06/10 08:15:06;;;;;;;6.20;3.60;;;24.40;95.10;;;;;;5043166;28;20526;-68
2022/06/10 08:17:31;;;;;;;5.40;3.83;;;23.90;94.70;;;;;;5039312;28;20614;-68
2022/06/10 08:19:57;;;;;;;14.13;3.60;;;23.40;95.30;;;;;;5043852;28;20437;-68
2022/06/10 08:22:35;;;;;;;4.83;2.70;;;23.20;96.10;;;;;;5038185;28;20260;-68
2022/06/10 08:25:05;;;;;;;5.57;2.77;;;23.40;95.30;;;;;;5043282;28;20161;-67
2022/06/10 08:27:30;;;;;;;4.50;2.90;;;23.80;94.40;;;;;;5039529;28;20519;-67
2022/06/10 08:29:57;;;;;;;3.90;2.97;;;24.10;94.00;;;;;;5044703;28;20941;-68
2022/06/10 08:32:23;;;;;;;3.13;2.20;;;24.50;94.10;;;;;;5040049;28;20193;-67
2022/06/10 08:34:49;;;;;;;3.63;2.27;;;25.00;92.30;;;;;;5036957;28;20444;-68
2022/06/10 08:37:15;;;;;;;4.27;3.50;;;25.40;92.10;;;;;;5034134;28;20451;-66
2022/06/10 08:39:40;;;;;;;4.17;2.43;;;25.60;91.00;;;;;;5043612;28;20605;-68
2022/06/10 08:42:41;;;;;;;5.90;2.97;;;25.70;91.10;;;;;;5043462;28;20773;-68
2022/06/10 08:45:20;;;;;;;3.70;2.40;;;25.50;90.10;;;;;;5037832;28;20611;-68
2022/06/10 08:48:14;;;;;;;3.57;2.67;;;25.10;89.10;;;;;;5038729;28;20439;-68
2022/06/10 08:51:08;;;;;;;4.33;2.90;;;24.90;88.40;;;;;;5038233;28;20463;-67
2022/06/10 08:53:46;;;;;;;7.63;3.97;;;25.50;88.80;;;;;;5039956;28;20433;-68
2022/06/10 08:56:33;;;;;;;5.43;2.70;;;25.80;86.80;;;;;;5039386;28;20813;-68
2022/06/10 08:59:12;;;;;;;4.47;2.73;;;25.80;82.30;;;;;;5037105;28;20474;-68
2022/06/10 09:01:50;;;;;;;3.60;2.87;;;25.80;84.80;;;;;;5043866;28;20459;-69
2022/06/10 09:04:40;;;;;;;4.40;3.00;;;24.80;86.60;;;;;;5040308;28;20424;-68
2022/06/10 09:07:12;;;;;;;3.93;3.13;;;24.70;86.70;;;;;;5043008;28;20444;-68
2022/06/10 09:09:40;;;;;;;3.30;2.57;;;24.10;87.80;;;;;;5041929;28;20441;-68
2022/06/10 09:12:17;;;;;;;11.53;3.27;;;24.40;88.00;;;;;;5049733;28;20486;-68
2022/06/10 09:14:43;;;;;;;4.20;3.20;;;24.40;86.20;;;;;;5035007;28;20438;-68
2022/06/10 09:17:25;;;;;;;3.60;2.97;;;24.30;84.70;;;;;;5039481;28;20535;-68
2022/06/10 09:20:24;;;;;;;4.30;2.37;;;24.00;85.20;;;;;;5037345;28;20498;-68
2022/06/10 09:22:57;;;;;;;5.50;2.87;;;23.40;86.90;;;;;;5040255;28;20433;-68
2022/06/10 09:25:41;;;;;;;6.23;2.80;;;22.70;90.00;;;;;;5039948;28;20416;-68
2022/06/10 09:28:07;;;;;;;4.23;2.70;;;22.50;90.20;;;;;;5051754;28;20412;-67
2022/06/10 09:30:54;;;;;;;8.90;2.67;;;23.00;90.90;;;;;;5039653;28;20831;-68
2022/06/10 09:33:33;;;;;;;5.00;3.30;;;24.10;90.20;;;;;;5035054;28;20520;-67
2022/06/10 09:36:17;;;;;;;4.90;3.00;;;24.40;88.10;;;;;;5041329;28;20452;-68
2022/06/10 09:39:04;;;;;;;4.47;2.70;;;24.90;86.50;;;;;;5038871;28;20527;-68
2022/06/10 09:41:40;;;;;;;4.50;3.70;;;25.00;87.60;;;;;;5039115;28;20490;-66
2022/06/10 09:44:08;;;;;;;4.13;2.60;;;25.30;85.60;;;;;;5038932;28;20435;-66
2022/06/10 09:46:47;;;;;;;6.67;2.80;;;25.60;85.20;;;;;;5039454;28;20475;-66
2022/06/10 09:49:19;;;;;;;2.90;2.00;;;25.50;82.90;;;;;;5035337;28;20439;-66
2022/06/10 09:51:58;;;;;;;3.47;3.03;;;25.50;80.30;;;;;;5039130;28;20476;-69
2022/06/10 09:54:55;;;;;;;3.10;2.80;;;25.70;80.50;;;;;;5033833;28;20970;-66
2022/06/10 09:57:40;;;;;;;4.07;2.23;;;25.70;79.50;;;;;;5043562;28;20523;-63
2022/06/10 10:00:21;;;;;;;6.07;2.77;;;25.40;77.00;;;;;;5039214;28;20942;-64
2022/06/10 10:03:05;;;;;;;5.37;2.90;;;26.40;78.50;;;;;;5041002;28;20478;-62
2022/06/10 10:05:43;;;;;;;3.90;2.67;;;27.00;76.20;;;;;;5036064;28;20432;-64
2022/06/10 10:08:38;;;;;;;3.00;2.20;;;26.70;76.00;;;;;;5044606;28;20476;-63
2022/06/10 10:11:16;;;;;;;3.23;2.93;;;26.20;77.30;;;;;;5032273;28;20518;-65
2022/06/10 10:14:10;;;;;;;4.80;3.07;;;25.80;78.50;;;;;;5038136;28;20444;-71
2022/06/10 10:16:55;;;;;;;4.77;3.77;;;25.60;79.00;;;;;;5039495;28;20447;-68
2022/06/10 10:19:38;;;;;;;3.67;2.60;;;25.50;81.50;;;;;;5036614;28;20465;-69
2022/06/10 10:22:13;;;;;;;6.47;3.20;;;25.70;81.50;;;;;;5029331;28;20993;-68
2022/06/10 10:24:42;;;;;;;3.90;2.47;;;25.70;81.70;;;;;;5035078;28;20514;-70
2022/06/10 10:27:14;;;;;;;4.47;3.50;;;25.30;83.90;;;;;;5039934;28;20436;-68
2022/06/10 10:29:45;;;;;;;5.60;3.37;;;24.70;83.70;;;;;;5037518;28;20814;-68
2022/06/10 10:32:18;;;;;;;5.50;3.63;;;24.50;84.90;;;;;;5040912;28;20468;-71
2022/06/10 10:34:50;;;;;;;4.10;3.30;;;24.60;85.80;;;;;;5049105;28;20443;-68
2022/06/10 10:37:30;;;;;;;3.80;3.00;;;24.50;85.20;;;;;;5046920;28;20462;-69
2022/06/10 10:40:01;;;;;;;2.77;2.50;;;24.50;85.60;;;;;;5051107;28;20816;-64
2022/06/10 10:42:34;;;;;;;3.63;2.63;;;24.80;84.60;;;;;;5042501;28;20503;-64
2022/06/10 10:45:14;;;;;;;3.67;3.00;;;26.10;81.50;;;;;;5053718;28;20432;-64
2022/06/10 10:47:52;;;;;;;3.30;2.33;;;28.40;76.70;;;;;;5050519;28;20494;-64
2022/06/10 10:50:32;;;;;;;5.03;2.90;;;28.80;71.80;;;;;;5044814;28;20435;-64
2022/06/10 10:52:59;;;;;;;4.67;3.93;;;28.60;72.30;;;;;;5038370;28;20794;-64
2022/06/10 10:55:36;;;;;;;6.93;4.17;;;29.00;70.00;;;;;;5041650;28;20428;-64
2022/06/10 10:58:13;;;;;;;4.43;2.20;;;29.20;67.80;;;;;;5049399;28;20460;-65
2022/06/10 11:00:44;;;;;;;3.23;2.93;;;30.70;64.10;;;;;;5041454;28;20493;-64
2022/06/10 11:03:23;;;;;;;2.90;2.37;;;31.60;59.70;;;;;;5048383;28;20482;-65
2022/06/10 11:05:52;;;;;;;3.37;3.07;;;31.70;58.70;;;;;;5034895;28;20436;-65
2022/06/10 11:08:24;;;;;;;4.97;2.87;;;32.60;56.50;;;;;;5048953;28;20443;-65
2022/06/10 11:11:03;;;;;;;8.33;3.13;;;33.90;54.90;;;;;;5039833;28;20477;-65
2022/06/10 11:13:52;;;;;;;4.40;2.43;;;35.20;51.80;;;;;;5041300;28;20516;-65
2022/06/10 11:16:29;;;;;;;3.00;1.97;;;36.00;47.60;;;;;;5038601;28;20523;-65
2022/06/10 11:19:01;;;;;;;5.27;2.77;;;36.50;46.20;;;;;;5043973;28;20463;-65
2022/06/10 11:21:27;;;;;;;5.83;2.70;;;38.50;43.00;;;;;;5036010;28;20464;-66
2022/06/10 11:23:58;;;;;;;3.97;2.10;;;38.40;40.80;;;;;;5041343;28;20535;-65
2022/06/10 11:26:25;;;;;;;5.50;3.10;;;38.30;41.10;;;;;;5041050;28;20462;-66
2022/06/10 11:29:00;;;;;;;4.43;2.80;;;38.40;40.20;;;;;;5032611;28;20445;-66
2022/06/10 11:31:38;;;;;;;4.60;2.60;;;38.30;39.20;;;;;;5044705;28;20474;-66
2022/06/10 11:34:05;;;;;;;2.53;2.33;;;37.70;38.40;;;;;;5040504;28;20445;-65
2022/06/10 11:36:46;;;;;;;3.70;2.53;;;36.30;39.80;;;;;;5044069;28;20460;-65
2022/06/10 11:39:17;;;;;;;3.00;2.73;;;34.30;40.90;;;;;;5034378;28;20472;-65
2022/06/10 11:42:01;;;;;;;5.97;3.30;;;33.10;42.10;;;;;;5037435;28;20455;-65
2022/06/10 11:44:29;;;;;;;4.73;3.20;;;32.60;42.80;;;;;;5038730;28;21013;-65
2022/06/10 11:47:26;;;;;;;5.63;5.13;;;33.50;42.00;;;;;;5034573;28;20483;-65
2022/06/10 11:50:09;;;;;;;4.97;3.53;;;35.80;40.30;;;;;;5044438;28;20956;-65
2022/06/10 11:53:00;;;;;;;2.90;2.70;;;36.00;39.60;;;;;;5040972;28;20498;-65
2022/06/10 11:55:30;;;;;;;6.00;2.70;;;35.30;39.20;;;;;;5049402;28;20490;-65
2022/06/10 12:01:16;;;;;;;3.67;2.53;;;37.10;38.50;;;;;;5040506;28;20486;-65
2022/06/10 12:03:50;;;;;;;4.23;2.80;;;34.90;39.50;;;;;;5048327;28;20428;-65
2022/06/10 12:06:29;;;;;;;3.63;3.00;;;34.10;40.80;;;;;;5044433;28;20939;-65
2022/06/10 12:09:15;;;;;;;7.70;2.67;;;33.30;41.10;;;;;;5046595;28;21286;-65
2022/06/10 12:11:48;;;;;;;3.10;2.73;;;31.70;42.90;;;;;;5035287;28;21050;-65
2022/06/10 12:14:31;;;;;;;3.07;2.77;;;33.70;41.90;;;;;;5044024;28;20432;-65
2022/06/10 12:17:12;;;;;;;3.87;2.67;;;33.70;41.10;;;;;;5047887;28;20799;-65
2022/06/10 12:19:54;;;;;;;3.83;3.00;;;34.20;40.80;;;;;;5038147;28;20479;-65
2022/06/10 12:22:20;;;;;;;4.40;2.20;;;34.60;40.50;;;;;;5040350;28;20875;-65
2022/06/10 12:24:47;;;;;;;4.43;2.20;;;34.80;39.60;;;;;;5039065;28;20441;-65
2022/06/10 12:27:28;;;;;;;3.20;2.40;;;36.40;39.10;;;;;;5042606;28;20205;-65
2022/06/10 12:30:02;;;;;;;5.10;2.27;;;37.20;37.80;;;;;;5040114;28;20539;-66
2022/06/10 12:32:35;;;;;;;5.50;2.50;;;38.00;36.70;;;;;;5047225;28;20484;-65
2022/06/10 12:35:10;;;;;;;2.70;2.50;;;39.40;36.50;;;;;;5039039;28;20471;-65
2022/06/10 12:37:42;;;;;;;2.90;2.43;;;39.70;35.30;;;;;;5039170;28;20455;-66
2022/06/10 12:40:21;;;;;;;5.07;2.20;;;40.90;34.70;;;;;;5043788;28;20468;-65
2022/06/10 12:42:50;;;;;;;2.23;2.03;;;40.20;34.40;;;;;;5052482;28;20499;-66
2022/06/10 12:45:27;;;;;;;2.67;2.27;;;41.80;33.30;;;;;;5031495;28;20849;-66
2022/06/10 12:48:00;;;;;;;4.07;2.30;;;42.40;32.40;;;;;;5036089;28;21021;-66
2022/06/10 12:50:34;;;;;;;2.37;2.17;;;42.00;31.40;;;;;;5042158;28;20441;-65
2022/06/10 12:53:37;;;;;;;3.30;2.53;;;39.70;32.30;;;;;;5047487;28;20444;-65
2022/06/10 12:56:21;;;;;;;2.43;2.10;;;40.20;32.60;;;;;;5033042;28;20529;-65
2022/06/10 12:58:47;;;;;;;2.60;2.40;;;40.20;32.70;;;;;;5035049;28;20468;-65
2022/06/10 13:01:20;;;;;;;6.40;2.70;;;38.40;32.90;;;;;;5037173;28;20456;-66
2022/06/10 13:03:49;;;;;;;2.90;2.13;;;39.30;32.90;;;;;;5054513;28;20663;-65
2022/06/10 13:06:43;;;;;;;2.47;2.27;;;40.20;32.50;;;;;;5039663;28;20791;-65
2022/06/10 13:09:12;;;;;;;3.93;2.30;;;38.90;32.90;;;;;;5032186;28;20495;-65
2022/06/10 13:11:41;;;;;;;3.30;2.57;;;36.10;34.40;;;;;;5033695;28;21043;-65
2022/06/10 13:14:19;;;;;;;2.67;2.03;;;33.50;36.50;;;;;;5039571;28;20437;-65
2022/06/10 13:16:59;;;;;;;2.50;2.30;;;31.60;38.50;;;;;;5030792;28;20440;-65
2022/06/10 13:19:52;;;;;;;3.77;2.33;;;29.80;41.30;;;;;;5038280;28;20525;-65
2022/06/10 13:22:21;;;;;;;5.40;2.17;;;28.00;43.60;;;;;;5035071;28;20448;-65
2022/06/10 13:24:52;;;;;;;3.40;2.50;;;27.40;44.70;;;;;;5041316;28;20455;-65